sensor_id;sensor_type;location;lat;lon;timestamp;pressure;altitude;pressure_sealevel;temperature;humidity
63204;BME280;49297;43.210;27.914;2023-02-13T00:01:22;103224.25;;;1.46;57.21
63204;BME280;49297;43.210;27.914;2023-02-13T00:03:48;103234.72;;;1.45;56.93
63204;BME280;49297;43.210;27.914;2023-02-13T00:06:13;103233.88;;;1.41;57.00
63204;BME280;49297;43.210;27.914;2023-02-13T00:08:39;103232.13;;;1.42;56.97
63204;BME280;49297;43.210;27.914;2023-02-13T00:11:05;103235.66;;;1.39;57.22
63204;BME280;49297;43.210;27.914;2023-02-13T00:13:32;103234.81;;;1.36;57.18
63204;BME280;49297;43.210;27.914;2023-02-13T00:16:01;103241.72;;;1.38;57.62
63204;BME280;49297;43.210;27.914;2023-02-13T00:18:28;103243.50;;;1.36;57.96
63204;BME280;49297;43.210;27.914;2023-02-13T00:20:58;103242.66;;;1.36;57.70
63204;BME280;49297;43.210;27.914;2023-02-13T00:23:24;103240.91;;;1.35;58.00
63204;BME280;49297;43.210;27.914;2023-02-13T00:25:50;103244.38;;;1.33;57.06
63204;BME280;49297;43.210;27.914;2023-02-13T00:28:16;103247.88;;;1.32;58.07
63204;BME280;49297;43.210;27.914;2023-02-13T00:30:42;103249.59;;;1.33;57.38
63204;BME280;49297;43.210;27.914;2023-02-13T00:33:07;103244.38;;;1.33;57.33
63204;BME280;49297;43.210;27.914;2023-02-13T00:35:33;103249.66;;;1.30;57.81
63204;BME280;49297;43.210;27.914;2023-02-13T00:37:59;103252.28;;;1.30;58.06
63204;BME280;49297;43.210;27.914;2023-02-13T00:40:24;103255.72;;;1.31;57.95
63204;BME280;49297;43.210;27.914;2023-02-13T00:42:50;103268.81;;;1.26;57.41
63204;BME280;49297;43.210;27.914;2023-02-13T00:45:16;103265.34;;;1.26;57.90
63204;BME280;49297;43.210;27.914;2023-02-13T00:47:42;103261.91;;;1.24;57.96
63204;BME280;49297;43.210;27.914;2023-02-13T00:50:08;103266.25;;;1.23;57.74
63204;BME280;49297;43.210;27.914;2023-02-13T00:52:34;103257.59;;;1.18;57.99
63204;BME280;49297;43.210;27.914;2023-02-13T00:55:00;103264.53;;;1.19;58.02
63204;BME280;49297;43.210;27.914;2023-02-13T00:57:25;103271.53;;;1.17;58.32
63204;BME280;49297;43.210;27.914;2023-02-13T00:59:51;103262.84;;;1.15;57.85
63204;BME280;49297;43.210;27.914;2023-02-13T01:02:17;103276.75;;;1.16;58.27
63204;BME280;49297;43.210;27.914;2023-02-13T01:04:43;103273.31;;;1.12;58.32
63204;BME280;49297;43.210;27.914;2023-02-13T01:07:08;103269.88;;;1.07;58.31
63204;BME280;49297;43.210;27.914;2023-02-13T01:09:34;103255.03;;;1.13;58.94
63204;BME280;49297;43.210;27.914;2023-02-13T01:12:00;103250.59;;;1.23;58.92
63204;BME280;49297;43.210;27.914;2023-02-13T01:14:26;103254.94;;;1.23;58.54
63204;BME280;49297;43.210;27.914;2023-02-13T01:16:51;103255.88;;;1.17;58.51
63204;BME280;49297;43.210;27.914;2023-02-13T01:19:17;103256.78;;;1.14;58.13
63204;BME280;49297;43.210;27.914;2023-02-13T01:21:43;103246.34;;;1.11;58.76
63204;BME280;49297;43.210;27.914;2023-02-13T01:24:09;103249.88;;;1.09;58.82
63204;BME280;49297;43.210;27.914;2023-02-13T01:26:34;103252.50;;;1.06;58.66
63204;BME280;49297;43.210;27.914;2023-02-13T01:29:00;103249.03;;;1.04;58.57
63204;BME280;49297;43.210;27.914;2023-02-13T01:31:26;103257.75;;;1.00;58.70
63204;BME280;49297;43.210;27.914;2023-02-13T01:33:55;103246.47;;;0.96;58.42
63204;BME280;49297;43.210;27.914;2023-02-13T01:36:22;103249.97;;;0.97;59.03
63204;BME280;49297;43.210;27.914;2023-02-13T01:38:52;103256.03;;;0.99;59.07
63204;BME280;49297;43.210;27.914;2023-02-13T01:41:18;103254.31;;;0.96;58.68
63204;BME280;49297;43.210;27.914;2023-02-13T01:43:59;103266.50;;;0.95;58.63
63204;BME280;49297;43.210;27.914;2023-02-13T01:46:37;103256.13;;;0.89;59.12
63204;BME280;49297;43.210;27.914;2023-02-13T01:49:18;103263.09;;;0.87;58.91
63204;BME280;49297;43.210;27.914;2023-02-13T01:51:46;103263.97;;;0.86;59.21
63204;BME280;49297;43.210;27.914;2023-02-13T01:54:18;103268.34;;;0.84;58.97
63204;BME280;49297;43.210;27.914;2023-02-13T01:56:51;103265.72;;;0.86;59.21
63204;BME280;49297;43.210;27.914;2023-02-13T01:59:21;103264.84;;;0.85;59.26
63204;BME280;49297;43.210;27.914;2023-02-13T02:01:49;103263.13;;;0.86;59.47
63204;BME280;49297;43.210;27.914;2023-02-13T02:04:19;103266.59;;;0.85;59.37
63204;BME280;49297;43.210;27.914;2023-02-13T02:06:57;103264.84;;;0.85;59.29
63204;BME280;49297;43.210;27.914;2023-02-13T02:09:27;103276.16;;;0.86;59.14
63204;BME280;49297;43.210;27.914;2023-02-13T02:12:00;103266.59;;;0.85;59.08
63204;BME280;49297;43.210;27.914;2023-02-13T02:14:29;103268.34;;;0.83;59.26
63204;BME280;49297;43.210;27.914;2023-02-13T02:16:56;103268.38;;;0.81;59.78
63204;BME280;49297;43.210;27.914;2023-02-13T02:39:49;103287.56;;;0.72;59.42
63204;BME280;49297;43.210;27.914;2023-02-13T02:42:50;103290.16;;;0.72;59.27
63204;BME280;49297;43.210;27.914;2023-02-13T02:45:50;103299.72;;;0.72;59.35
63204;BME280;49297;43.210;27.914;2023-02-13T02:48:31;103296.28;;;0.70;59.46
63204;BME280;49297;43.210;27.914;2023-02-13T02:51:24;103290.16;;;0.69;59.29
63204;BME280;49297;43.210;27.914;2023-02-13T02:56:37;103296.28;;;0.65;59.02
63204;BME280;49297;43.210;27.914;2023-02-13T02:59:12;103295.44;;;0.66;59.31
63204;BME280;49297;43.210;27.914;2023-02-13T03:01:59;103301.50;;;0.64;59.44
63204;BME280;49297;43.210;27.914;2023-02-13T03:04:51;103305.03;;;0.61;59.43
63204;BME280;49297;43.210;27.914;2023-02-13T03:07:38;103313.72;;;0.60;59.01
63204;BME280;49297;43.210;27.914;2023-02-13T03:10:08;103313.72;;;0.59;59.23
63204;BME280;49297;43.210;27.914;2023-02-13T03:13:13;103310.25;;;0.55;59.41
63204;BME280;49297;43.210;27.914;2023-02-13T03:15:47;103309.41;;;0.53;59.22
63204;BME280;49297;43.210;27.914;2023-02-13T03:18:38;103305.09;;;0.49;59.31
63204;BME280;49297;43.210;27.914;2023-02-13T03:24:24;103294.69;;;0.44;59.87
63204;BME280;49297;43.210;27.914;2023-02-13T03:29:42;103299.03;;;0.42;59.59
63204;BME280;49297;43.210;27.914;2023-02-13T03:33:02;103298.19;;;0.42;59.72
63204;BME280;49297;43.210;27.914;2023-02-13T03:35:49;103299.94;;;0.41;59.68
63204;BME280;49297;43.210;27.914;2023-02-13T03:38:58;103306.06;;;0.32;59.57
63204;BME280;49297;43.210;27.914;2023-02-13T03:41:35;103306.06;;;0.28;59.79
63204;BME280;49297;43.210;27.914;2023-02-13T03:44:17;103300.03;;;0.19;60.03
63204;BME280;49297;43.210;27.914;2023-02-13T03:46:46;103307.88;;;0.16;60.23
63204;BME280;49297;43.210;27.914;2023-02-13T03:49:25;103305.28;;;0.13;60.20
63204;BME280;49297;43.210;27.914;2023-02-13T03:52:24;103308.75;;;0.12;60.47
63204;BME280;49297;43.210;27.914;2023-02-13T03:54:55;103304.44;;;0.08;60.46
63204;BME280;49297;43.210;27.914;2023-02-13T03:57:43;103307.06;;;0.04;60.33
63204;BME280;49297;43.210;27.914;2023-02-13T04:00:34;103310.59;;;-0.05;60.27
63204;BME280;49297;43.210;27.914;2023-02-13T04:05:30;103307.13;;;-0.13;60.84
63204;BME280;49297;43.210;27.914;2023-02-13T04:07:56;103298.47;;;-0.15;60.98
63204;BME280;49297;43.210;27.914;2023-02-13T04:10:23;103308.88;;;-0.17;61.03
63204;BME280;49297;43.210;27.914;2023-02-13T04:15:41;103301.06;;;-0.17;60.94
63204;BME280;49297;43.210;27.914;2023-02-13T04:18:09;103305.41;;;-0.16;61.25
63204;BME280;49297;43.210;27.914;2023-02-13T04:20:38;103313.22;;;-0.16;61.30
63204;BME280;49297;43.210;27.914;2023-02-13T04:23:06;103308.88;;;-0.12;61.13
63204;BME280;49297;43.210;27.914;2023-02-13T04:25:34;103308.84;;;-0.11;60.68
63204;BME280;49297;43.210;27.914;2023-02-13T04:28:02;103317.53;;;-0.10;61.10
63204;BME280;49297;43.210;27.914;2023-02-13T04:30:28;103314.03;;;-0.09;60.74
63204;BME280;49297;43.210;27.914;2023-02-13T04:32:53;103313.19;;;-0.07;61.00
63204;BME280;49297;43.210;27.914;2023-02-13T04:35:20;103304.47;;;-0.07;60.80
63204;BME280;49297;43.210;27.914;2023-02-13T04:37:46;103307.09;;;-0.04;60.98
63204;BME280;49297;43.210;27.914;2023-02-13T04:40:12;103314.91;;;-0.04;60.97
63204;BME280;49297;43.210;27.914;2023-02-13T04:42:38;103306.22;;;-0.06;60.43
63204;BME280;49297;43.210;27.914;2023-02-13T04:45:04;103302.78;;;-0.11;60.30
63204;BME280;49297;43.210;27.914;2023-02-13T04:47:29;103308.00;;;-0.16;60.56
63204;BME280;49297;43.210;27.914;2023-02-13T04:49:55;103301.06;;;-0.20;60.58
63204;BME280;49297;43.210;27.914;2023-02-13T04:52:21;103301.97;;;-0.24;60.89
63204;BME280;49297;43.210;27.914;2023-02-13T04:54:47;103297.63;;;-0.34;60.59
63204;BME280;49297;43.210;27.914;2023-02-13T04:57:12;103303.72;;;-0.37;61.16
63204;BME280;49297;43.210;27.914;2023-02-13T04:59:39;103308.09;;;-0.39;61.56
63204;BME280;49297;43.210;27.914;2023-02-13T05:02:05;103308.06;;;-0.42;60.92
63204;BME280;49297;43.210;27.914;2023-02-13T05:04:32;103315.03;;;-0.52;61.23
63204;BME280;49297;43.210;27.914;2023-02-13T05:06:57;103307.25;;;-0.56;61.74
63204;BME280;49297;43.210;27.914;2023-02-13T05:09:23;103315.94;;;-0.61;61.59
63204;BME280;49297;43.210;27.914;2023-02-13T05:11:51;103328.06;;;-0.70;61.36
63204;BME280;49297;43.210;27.914;2023-02-13T05:14:17;103331.53;;;-0.78;62.17
63204;BME280;49297;43.210;27.914;2023-02-13T05:16:44;103334.13;;;-0.81;62.07
63204;BME280;49297;43.210;27.914;2023-02-13T05:19:10;103342.81;;;-0.86;62.48
63204;BME280;49297;43.210;27.914;2023-02-13T05:21:36;103340.22;;;-0.91;62.72
63204;BME280;49297;43.210;27.914;2023-02-13T05:24:20;103341.94;;;-0.91;62.59
63204;BME280;49297;43.210;27.914;2023-02-13T05:26:47;103339.34;;;-0.90;62.74
63204;BME280;49297;43.210;27.914;2023-02-13T05:29:15;103341.97;;;-0.85;62.70
63204;BME280;49297;43.210;27.914;2023-02-13T05:31:52;103341.09;;;-0.83;62.74
63204;BME280;49297;43.210;27.914;2023-02-13T05:34:19;103341.09;;;-0.83;62.87
63204;BME280;49297;43.210;27.914;2023-02-13T05:36:46;103346.28;;;-0.84;62.90
63204;BME280;49297;43.210;27.914;2023-02-13T05:39:12;103349.78;;;-0.85;63.12
63204;BME280;49297;43.210;27.914;2023-02-13T05:41:37;103352.38;;;-0.87;62.83
63204;BME280;49297;43.210;27.914;2023-02-13T05:44:04;103352.38;;;-0.84;62.91
63204;BME280;49297;43.210;27.914;2023-02-13T05:46:29;103353.22;;;-0.82;63.38
63204;BME280;49297;43.210;27.914;2023-02-13T05:48:55;103358.41;;;-0.79;63.04
63204;BME280;49297;43.210;27.914;2023-02-13T05:51:21;103354.97;;;-0.76;63.07
63204;BME280;49297;43.210;27.914;2023-02-13T05:53:48;103363.63;;;-0.71;63.31
63204;BME280;49297;43.210;27.914;2023-02-13T05:56:14;103357.56;;;-0.70;63.06
63204;BME280;49297;43.210;27.914;2023-02-13T05:58:40;103354.09;;;-0.69;63.26
63204;BME280;49297;43.210;27.914;2023-02-13T06:01:06;103364.50;;;-0.66;63.28
63204;BME280;49297;43.210;27.914;2023-02-13T06:03:34;103359.28;;;-0.60;63.64
63204;BME280;49297;43.210;27.914;2023-02-13T06:06:02;103361.91;;;-0.55;63.20
63204;BME280;49297;43.210;27.914;2023-02-13T06:08:28;103364.50;;;-0.47;63.14
63204;BME280;49297;43.210;27.914;2023-02-13T06:10:53;103370.56;;;-0.39;63.39
63204;BME280;49297;43.210;27.914;2023-02-13T06:13:19;103359.28;;;-0.30;63.18
63204;BME280;49297;43.210;27.914;2023-02-13T06:15:45;103361.84;;;-0.23;63.14
63204;BME280;49297;43.210;27.914;2023-02-13T06:18:11;103358.34;;;-0.18;63.24
63204;BME280;49297;43.210;27.914;2023-02-13T06:20:37;103354.88;;;-0.11;63.33
63204;BME280;49297;43.210;27.914;2023-02-13T06:23:03;103360.03;;;-0.04;63.07
63204;BME280;49297;43.210;27.914;2023-02-13T06:25:29;103365.25;;;0.03;62.48
63204;BME280;49297;43.210;27.914;2023-02-13T06:27:55;103363.50;;;0.09;62.76
63204;BME280;49297;43.210;27.914;2023-02-13T06:30:21;103363.47;;;0.14;62.08
63204;BME280;49297;43.210;27.914;2023-02-13T06:32:47;103361.72;;;0.21;62.48
63204;BME280;49297;43.210;27.914;2023-02-13T06:35:14;103356.50;;;0.25;62.12
63204;BME280;49297;43.210;27.914;2023-02-13T06:37:41;103365.16;;;0.23;62.03
63204;BME280;49297;43.210;27.914;2023-02-13T06:40:13;103364.34;;;0.07;62.23
63204;BME280;49297;43.210;27.914;2023-02-13T06:42:41;103362.63;;;0.07;62.21
63204;BME280;49297;43.210;27.914;2023-02-13T06:45:07;103358.28;;;0.09;62.14
63204;BME280;49297;43.210;27.914;2023-02-13T06:47:33;103357.34;;;0.19;62.37
63204;BME280;49297;43.210;27.914;2023-02-13T06:49:59;103362.56;;;0.26;62.22
63204;BME280;49297;43.210;27.914;2023-02-13T06:52:25;103366.00;;;0.32;61.91
63204;BME280;49297;43.210;27.914;2023-02-13T06:54:50;103359.00;;;0.39;61.77
63204;BME280;49297;43.210;27.914;2023-02-13T06:57:16;103358.16;;;0.37;61.70
63204;BME280;49297;43.210;27.914;2023-02-13T06:59:42;103352.94;;;0.45;61.70
63204;BME280;49297;43.210;27.914;2023-02-13T07:02:11;103362.44;;;0.52;61.75
63204;BME280;49297;43.210;27.914;2023-02-13T07:04:38;103359.78;;;0.56;61.24
63204;BME280;49297;43.210;27.914;2023-02-13T07:07:04;103363.25;;;0.65;61.16
63204;BME280;49297;43.210;27.914;2023-02-13T07:09:30;103364.88;;;0.76;60.76
63204;BME280;49297;43.210;27.914;2023-02-13T07:11:56;103365.72;;;0.80;60.46
63204;BME280;49297;43.210;27.914;2023-02-13T07:14:22;103354.44;;;0.84;60.42
63204;BME280;49297;43.210;27.914;2023-02-13T07:16:48;103362.19;;;0.90;60.81
63204;BME280;49297;43.210;27.914;2023-02-13T07:19:14;103357.81;;;0.99;60.80
63204;BME280;49297;43.210;27.914;2023-02-13T07:21:39;103361.19;;;1.07;60.67
63204;BME280;49297;43.210;27.914;2023-02-13T07:24:05;103356.81;;;1.13;60.83
63204;BME280;49297;43.210;27.914;2023-02-13T07:26:31;103364.53;;;1.24;60.35
63204;BME280;49297;43.210;27.914;2023-02-13T07:28:57;103354.00;;;1.38;60.38
63204;BME280;49297;43.210;27.914;2023-02-13T07:31:26;103347.91;;;1.38;59.47
63204;BME280;49297;43.210;27.914;2023-02-13T07:33:52;103352.19;;;1.46;59.31
63204;BME280;49297;43.210;27.914;2023-02-13T07:36:18;103357.31;;;1.59;58.98
63204;BME280;49297;43.210;27.914;2023-02-13T07:38:43;103358.09;;;1.64;58.34
63204;BME280;49297;43.210;27.914;2023-02-13T07:41:09;103347.59;;;1.71;58.67
63204;BME280;49297;43.210;27.914;2023-02-13T07:43:36;103355.25;;;1.85;58.70
63204;BME280;49297;43.210;27.914;2023-02-13T07:46:02;103342.94;;;1.98;59.26
63204;BME280;49297;43.210;27.914;2023-02-13T07:48:29;103331.50;;;2.07;59.06
63204;BME280;49297;43.210;27.914;2023-02-13T07:50:59;103340.06;;;2.20;58.54
63204;BME280;49297;43.210;27.914;2023-02-13T07:53:25;103331.16;;;2.32;58.39
63204;BME280;49297;43.210;27.914;2023-02-13T07:55:51;103326.69;;;2.41;57.90
63204;BME280;49297;43.210;27.914;2023-02-13T07:58:17;103321.31;;;2.52;57.91
63204;BME280;49297;43.210;27.914;2023-02-13T08:00:43;103322.91;;;2.64;57.58
63204;BME280;49297;43.210;27.914;2023-02-13T08:03:08;103320.16;;;2.73;57.09
63204;BME280;49297;43.210;27.914;2023-02-13T08:05:34;103325.13;;;2.89;57.18
63204;BME280;49297;43.210;27.914;2023-02-13T08:08:00;103318.78;;;3.03;56.52
63204;BME280;49297;43.210;27.914;2023-02-13T08:10:26;103324.81;;;3.09;56.12
63204;BME280;49297;43.210;27.914;2023-02-13T08:13:12;103326.50;;;3.11;55.83
63204;BME280;49297;43.210;27.914;2023-02-13T08:15:39;103332.66;;;3.10;55.03
63204;BME280;49297;43.210;27.914;2023-02-13T08:18:05;103335.28;;;3.10;54.72
63204;BME280;49297;43.210;27.914;2023-02-13T08:20:32;103323.13;;;3.04;54.87
63204;BME280;49297;43.210;27.914;2023-02-13T08:23:05;103321.38;;;3.05;54.85
63204;BME280;49297;43.210;27.914;2023-02-13T08:25:31;103335.38;;;3.02;55.09
63204;BME280;49297;43.210;27.914;2023-02-13T08:27:59;103337.16;;;3.00;55.26
63204;BME280;49297;43.210;27.914;2023-02-13T08:30:26;103330.19;;;2.99;55.17
63204;BME280;49297;43.210;27.914;2023-02-13T08:32:53;103330.97;;;3.04;55.24
63204;BME280;49297;43.210;27.914;2023-02-13T08:35:19;103320.47;;;3.06;54.63
63204;BME280;49297;43.210;27.914;2023-02-13T08:37:45;103317.81;;;3.11;54.29
63204;BME280;49297;43.210;27.914;2023-02-13T08:40:12;103321.25;;;3.13;53.54
63204;BME280;49297;43.210;27.914;2023-02-13T08:42:38;103322.03;;;3.18;53.28
63204;BME280;49297;43.210;27.914;2023-02-13T08:45:04;103323.72;;;3.22;53.36
63204;BME280;49297;43.210;27.914;2023-02-13T08:47:31;103325.31;;;3.29;52.76
63204;BME280;49297;43.210;27.914;2023-02-13T08:49:56;103327.88;;;3.34;52.81
63204;BME280;49297;43.210;27.914;2023-02-13T08:52:22;103319.03;;;3.41;52.23
63204;BME280;49297;43.210;27.914;2023-02-13T08:54:48;103316.38;;;3.42;52.19
63204;BME280;49297;43.210;27.914;2023-02-13T08:57:14;103317.16;;;3.48;52.10
63204;BME280;49297;43.210;27.914;2023-02-13T08:59:39;103318.81;;;3.53;52.32
63204;BME280;49297;43.210;27.914;2023-02-13T09:02:05;103316.03;;;3.61;51.88
63204;BME280;49297;43.210;27.914;2023-02-13T09:04:31;103320.22;;;3.70;51.91
63204;BME280;49297;43.210;27.914;2023-02-13T09:06:57;103315.72;;;3.78;51.47
63204;BME280;49297;43.210;27.914;2023-02-13T09:09:23;103301.69;;;3.80;50.23
63204;BME280;49297;43.210;27.914;2023-02-13T09:11:49;103300.78;;;3.81;50.67
63204;BME280;49297;43.210;27.914;2023-02-13T09:14:16;103305.03;;;3.89;50.96
63204;BME280;49297;43.210;27.914;2023-02-13T09:16:41;103294.34;;;3.98;49.93
63204;BME280;49297;43.210;27.914;2023-02-13T09:19:07;103296.13;;;3.96;49.88
63204;BME280;49297;43.210;27.914;2023-02-13T09:21:33;103291.69;;;3.99;49.23
63204;BME280;49297;43.210;27.914;2023-02-13T09:23:59;103301.19;;;4.05;49.88
63204;BME280;49297;43.210;27.914;2023-02-13T09:26:24;103289.88;;;4.03;49.97
63204;BME280;49297;43.210;27.914;2023-02-13T09:28:50;103288.09;;;4.04;49.33
63204;BME280;49297;43.210;27.914;2023-02-13T09:31:18;103277.69;;;3.99;49.66
63204;BME280;49297;43.210;27.914;2023-02-13T09:33:46;103282.03;;;4.02;49.75
63204;BME280;49297;43.210;27.914;2023-02-13T09:36:17;103276.75;;;4.03;50.55
63204;BME280;49297;43.210;27.914;2023-02-13T09:38:51;103275.78;;;4.07;50.40
63204;BME280;49297;43.210;27.914;2023-02-13T09:41:35;103253.97;;;4.07;50.17
63204;BME280;49297;43.210;27.914;2023-02-13T09:44:09;103260.78;;;4.14;49.61
63204;BME280;49297;43.210;27.914;2023-02-13T09:49:52;103241.97;;;4.34;47.10
63204;BME280;49297;43.210;27.914;2023-02-13T09:52:19;103246.41;;;4.32;46.03
63204;BME280;49297;43.210;27.914;2023-02-13T09:54:44;103234.00;;;4.38;45.31
63204;BME280;49297;43.210;27.914;2023-02-13T09:57:19;103234.53;;;4.53;45.22
63204;BME280;49297;43.210;27.914;2023-02-13T09:59:57;103237.72;;;4.66;45.57
63204;BME280;49297;43.210;27.914;2023-02-13T10:08:08;103219.88;;;4.80;45.75
63204;BME280;49297;43.210;27.914;2023-02-13T10:11:03;103209.34;;;4.82;45.24
63204;BME280;49297;43.210;27.914;2023-02-13T10:13:49;103208.41;;;4.83;45.63
63204;BME280;49297;43.210;27.914;2023-02-13T10:16:27;103206.56;;;4.86;45.73
63204;BME280;49297;43.210;27.914;2023-02-13T10:21:45;103198.59;;;4.91;45.44
63204;BME280;49297;43.210;27.914;2023-02-13T10:24:39;103191.28;;;5.02;45.92
63204;BME280;49297;43.210;27.914;2023-02-13T10:27:27;103191.94;;;5.10;45.76
63204;BME280;49297;43.210;27.914;2023-02-13T10:29:59;103191.72;;;5.18;45.46
63204;BME280;49297;43.210;27.914;2023-02-13T10:36:04;103186.06;;;5.33;45.17
63204;BME280;49297;43.210;27.914;2023-02-13T10:38:33;103172.88;;;5.35;45.02
63204;BME280;49297;43.210;27.914;2023-02-13T11:00:34;103149.19;;;5.95;44.53
63204;BME280;49297;43.210;27.914;2023-02-13T11:03:00;103146.34;;;6.02;44.69
63204;BME280;49297;43.210;27.914;2023-02-13T11:05:36;103146.28;;;6.04;44.11
63204;BME280;49297;43.210;27.914;2023-02-13T11:08:03;103140.84;;;6.10;44.33
63204;BME280;49297;43.210;27.914;2023-02-13T11:10:35;103144.25;;;6.14;43.68
63204;BME280;49297;43.210;27.914;2023-02-13T11:13:15;103142.41;;;6.16;43.42
63204;BME280;49297;43.210;27.914;2023-02-13T11:15:42;103137.06;;;6.19;42.77
63204;BME280;49297;43.210;27.914;2023-02-13T11:18:21;103128.25;;;6.20;43.78
63204;BME280;49297;43.210;27.914;2023-02-13T11:21:07;103133.31;;;6.26;43.39
63204;BME280;49297;43.210;27.914;2023-02-13T11:23:40;103127.75;;;6.35;43.04
63204;BME280;49297;43.210;27.914;2023-02-13T11:26:13;103128.47;;;6.40;43.04
63204;BME280;49297;43.210;27.914;2023-02-13T11:28:49;103123.91;;;6.45;43.28
63204;BME280;49297;43.210;27.914;2023-02-13T11:31:30;103117.28;;;6.59;43.12
63204;BME280;49297;43.210;27.914;2023-02-13T11:33:58;103109.88;;;6.70;42.58
63204;BME280;49297;43.210;27.914;2023-02-13T11:36:31;103106.81;;;6.82;42.73
63204;BME280;49297;43.210;27.914;2023-02-13T11:39:03;103101.47;;;6.84;42.67
63204;BME280;49297;43.210;27.914;2023-02-13T11:41:39;103096.88;;;6.91;42.47
63204;BME280;49297;43.210;27.914;2023-02-13T11:44:27;103092.06;;;7.02;42.94
63204;BME280;49297;43.210;27.914;2023-02-13T11:46:56;103084.78;;;7.09;42.35
63204;BME280;49297;43.210;27.914;2023-02-13T11:49:28;103070.56;;;7.13;42.85
63204;BME280;49297;43.210;27.914;2023-02-13T11:51:56;103079.06;;;7.21;42.88
63204;BME280;49297;43.210;27.914;2023-02-13T11:56:51;103077.84;;;7.30;42.36
63204;BME280;49297;43.210;27.914;2023-02-13T11:59:21;103076.88;;;7.32;42.20
63204;BME280;49297;43.210;27.914;2023-02-13T12:02:25;103080.28;;;7.34;42.11
63204;BME280;49297;43.210;27.914;2023-02-13T12:05:15;103077.75;;;7.33;45.24
63204;BME280;49297;43.210;27.914;2023-02-13T12:07:39;103074.16;;;7.12;46.29
63204;BME280;49297;43.210;27.914;2023-02-13T12:13:20;103074.53;;;7.01;46.96
63204;BME280;49297;43.210;27.914;2023-02-13T12:15:48;103079.88;;;6.99;46.83
63204;BME280;49297;43.210;27.914;2023-02-13T12:18:33;103070.81;;;7.07;46.55
63204;BME280;49297;43.210;27.914;2023-02-13T12:23:44;103073.28;;;7.35;46.58
63204;BME280;49297;43.210;27.914;2023-02-13T12:26:17;103063.41;;;7.62;46.19
63204;BME280;49297;43.210;27.914;2023-02-13T12:31:35;103044.69;;;8.11;45.03
63204;BME280;49297;43.210;27.914;2023-02-13T12:37:23;103049.28;;;8.69;45.07
63204;BME280;49297;43.210;27.914;2023-02-13T12:48:28;103038.94;;;9.40;39.54
63204;BME280;49297;43.210;27.914;2023-02-13T12:54:04;103054.16;;;9.54;39.56
63204;BME280;49297;43.210;27.914;2023-02-13T13:02:25;103040.97;;;9.89;39.53
63204;BME280;49297;43.210;27.914;2023-02-13T13:08:35;103036.31;;;10.29;38.64
63204;BME280;49297;43.210;27.914;2023-02-13T13:10:39;103031.94;;;10.63;37.28
63204;BME280;49297;43.210;27.914;2023-02-13T13:26:36;103024.53;;;10.70;35.33
63204;BME280;49297;43.210;27.914;2023-02-13T13:29:29;103028.44;;;10.10;36.83
63204;BME280;49297;43.210;27.914;2023-02-13T13:32:06;103023.66;;;9.47;37.79
63204;BME280;49297;43.210;27.914;2023-02-13T13:34:34;103015.13;;;9.04;38.22
63204;BME280;49297;43.210;27.914;2023-02-13T13:37:11;103016.28;;;8.58;38.51
63204;BME280;49297;43.210;27.914;2023-02-13T13:39:59;103007.69;;;8.12;37.72
63204;BME280;49297;43.210;27.914;2023-02-13T13:50:32;103003.13;;;7.09;39.56
63204;BME280;49297;43.210;27.914;2023-02-13T13:53:12;102996.09;;;6.85;39.31
63204;BME280;49297;43.210;27.914;2023-02-13T14:01:16;102992.38;;;6.44;42.07
63204;BME280;49297;43.210;27.914;2023-02-13T14:03:44;102985.88;;;6.29;43.68
63204;BME280;49297;43.210;27.914;2023-02-13T14:06:16;102989.81;;;6.17;44.28
63204;BME280;49297;43.210;27.914;2023-02-13T14:11:43;102983.94;;;5.82;44.36
63204;BME280;49297;43.210;27.914;2023-02-13T14:17:00;102980.75;;;5.72;43.88
63204;BME280;49297;43.210;27.914;2023-02-13T14:19:33;102975.75;;;5.65;44.27
63204;BME280;49297;43.210;27.914;2023-02-13T14:25:02;102969.38;;;5.45;45.35
63204;BME280;49297;43.210;27.914;2023-02-13T14:27:34;102972.16;;;5.41;45.19
63204;BME280;49297;43.210;27.914;2023-02-13T14:30:30;102958.25;;;5.37;45.44
63204;BME280;49297;43.210;27.914;2023-02-13T14:33:22;102963.50;;;5.37;45.98
63204;BME280;49297;43.210;27.914;2023-02-13T14:36:05;102962.53;;;5.40;46.05
63204;BME280;49297;43.210;27.914;2023-02-13T14:38:35;102960.81;;;5.40;45.93
63204;BME280;49297;43.210;27.914;2023-02-13T14:41:03;102953.09;;;5.34;45.79
63204;BME280;49297;43.210;27.914;2023-02-13T14:43:35;102950.63;;;5.29;46.27
63204;BME280;49297;43.210;27.914;2023-02-13T14:48:46;102950.84;;;5.22;46.83
63204;BME280;49297;43.210;27.914;2023-02-13T14:51:29;102947.50;;;5.17;47.06
63204;BME280;49297;43.210;27.914;2023-02-13T14:54:26;102938.81;;;5.14;47.17
63204;BME280;49297;43.210;27.914;2023-02-13T14:57:03;102930.09;;;5.14;47.19
63204;BME280;49297;43.210;27.914;2023-02-13T14:59:33;102942.41;;;5.12;47.63
63204;BME280;49297;43.210;27.914;2023-02-13T15:02:11;102939.84;;;5.10;47.97
63204;BME280;49297;43.210;27.914;2023-02-13T15:04:42;102936.41;;;5.08;48.28
63204;BME280;49297;43.210;27.914;2023-02-13T15:07:17;102929.44;;;5.07;48.23
63204;BME280;49297;43.210;27.914;2023-02-13T15:09:49;102937.38;;;5.04;48.47
63204;BME280;49297;43.210;27.914;2023-02-13T15:12:30;102930.53;;;5.00;48.59
63204;BME280;49297;43.210;27.914;2023-02-13T15:14:57;102934.28;;;4.91;48.66
63204;BME280;49297;43.210;27.914;2023-02-13T15:17:28;102936.06;;;4.91;49.02
63204;BME280;49297;43.210;27.914;2023-02-13T15:20:07;102940.50;;;4.89;49.31
63204;BME280;49297;43.210;27.914;2023-02-13T15:22:45;102937.06;;;4.87;49.13
63204;BME280;49297;43.210;27.914;2023-02-13T15:25:33;102935.41;;;4.83;49.60
63204;BME280;49297;43.210;27.914;2023-02-13T15:28:06;102939.06;;;4.79;49.38
63204;BME280;49297;43.210;27.914;2023-02-13T15:30:36;102937.41;;;4.76;49.53